createdAt,value
2017-11-08T00:00:11.025Z,988.81
2017-11-08T00:01:10.418Z,988.87
2017-11-08T00:02:10.415Z,988.88
2017-11-08T00:03:10.410Z,988.89
2017-11-08T00:04:10.419Z,988.86
2017-11-08T00:05:11.713Z,988.81
2017-11-08T00:06:10.395Z,988.81
2017-11-08T00:07:10.391Z,988.82
2017-11-08T00:08:10.385Z,988.81
2017-11-08T00:09:10.381Z,988.81
2017-11-08T00:10:10.819Z,988.84
2017-11-08T00:11:10.373Z,988.82
2017-11-08T00:12:10.367Z,988.76
2017-11-08T00:13:10.363Z,988.79
2017-11-08T00:14:10.357Z,988.72
2017-11-08T00:15:10.820Z,988.69
2017-11-08T00:16:10.349Z,988.57
2017-11-08T00:17:10.344Z,988.55
2017-11-08T00:18:10.339Z,988.46
2017-11-08T00:19:10.334Z,988.43
2017-11-08T00:20:10.852Z,988.42
2017-11-08T00:21:10.325Z,988.42
2017-11-08T00:22:10.320Z,988.33
2017-11-08T00:23:10.316Z,988.32
2017-11-08T00:24:10.310Z,988.29
2017-11-08T00:25:10.611Z,988.22
2017-11-08T00:26:10.300Z,988.12
2017-11-08T00:27:10.308Z,988.02
2017-11-08T00:28:10.292Z,988.02
2017-11-08T00:29:10.348Z,988.01
2017-11-08T00:30:10.760Z,988.08
2017-11-08T00:31:10.283Z,988.2
2017-11-08T00:32:10.270Z,988.23
2017-11-08T00:33:10.267Z,988.25
2017-11-08T00:34:10.262Z,988.24
2017-11-08T00:35:10.716Z,988.2
2017-11-08T00:36:10.252Z,988.16
2017-11-08T00:37:10.248Z,988.11
2017-11-08T00:38:10.251Z,988.14
2017-11-08T00:39:10.248Z,988.23
2017-11-08T00:40:10.698Z,988.28
2017-11-08T00:41:10.228Z,988.42
2017-11-08T00:42:10.224Z,988.45
2017-11-08T00:43:10.220Z,988.47
2017-11-08T00:44:10.214Z,988.49
2017-11-08T00:45:10.720Z,988.5
2017-11-08T00:46:10.205Z,988.49
2017-11-08T00:47:10.197Z,988.5
2017-11-08T00:48:10.193Z,988.55
2017-11-08T00:49:10.191Z,988.63
2017-11-08T00:50:10.698Z,988.66
2017-11-08T00:51:10.179Z,988.73
2017-11-08T00:52:10.170Z,988.65
2017-11-08T00:53:10.172Z,988.66
2017-11-08T00:54:10.161Z,988.66
2017-11-08T00:55:10.642Z,988.64
2017-11-08T00:56:10.158Z,988.61
2017-11-08T00:57:10.147Z,988.57
2017-11-08T00:58:10.142Z,988.54
2017-11-08T00:59:10.138Z,988.57
2017-11-08T01:00:10.573Z,988.61
2017-11-08T01:01:10.927Z,988.58
2017-11-08T01:02:10.121Z,988.57
2017-11-08T01:03:10.117Z,988.56
2017-11-08T01:04:10.111Z,988.56
2017-11-08T01:05:10.674Z,988.56
2017-11-08T01:06:10.104Z,988.55
2017-11-08T01:07:10.095Z,988.56
2017-11-08T01:08:10.091Z,988.56
2017-11-08T01:09:10.084Z,988.57
2017-11-08T01:10:10.496Z,988.58
2017-11-08T01:11:10.074Z,988.6
2017-11-08T01:12:10.068Z,988.61
2017-11-08T01:13:10.063Z,988.58
2017-11-08T01:14:10.057Z,988.59
2017-11-08T01:15:10.387Z,988.59
2017-11-08T01:16:10.048Z,988.58
2017-11-08T01:17:10.052Z,988.53
2017-11-08T01:18:10.039Z,988.51
2017-11-08T01:19:10.033Z,988.46
2017-11-08T01:20:10.443Z,988.44
2017-11-08T01:21:10.022Z,988.39
2017-11-08T01:22:10.018Z,988.41
2017-11-08T01:23:10.011Z,988.42
2017-11-08T01:24:10.010Z,988.4
2017-11-08T01:25:10.315Z,988.37
2017-11-08T01:26:09.996Z,988.37
2017-11-08T01:27:09.990Z,988.38
2017-11-08T01:28:09.984Z,988.35
2017-11-08T01:29:09.979Z,988.36
2017-11-08T01:30:10.470Z,988.36
2017-11-08T01:31:09.973Z,988.37
2017-11-08T01:32:09.980Z,988.36
2017-11-08T01:33:09.958Z,988.34
2017-11-08T01:34:09.953Z,988.4
2017-11-08T01:35:10.296Z,988.39
2017-11-08T01:36:09.942Z,988.41
2017-11-08T01:37:09.937Z,988.42
2017-11-08T01:38:09.936Z,988.46
2017-11-08T01:39:09.927Z,988.41
2017-11-08T01:40:10.377Z,988.39
2017-11-08T01:41:09.917Z,988.43
2017-11-08T01:42:09.912Z,988.44
2017-11-08T01:43:09.906Z,988.39
2017-11-08T01:44:09.909Z,988.42
2017-11-08T01:45:10.366Z,988.37
2017-11-08T01:46:09.893Z,988.4
2017-11-08T01:47:09.886Z,988.42
2017-11-08T01:48:09.886Z,988.42
2017-11-08T01:49:09.876Z,988.39
2017-11-08T01:50:10.333Z,988.36
2017-11-08T01:51:09.866Z,988.37
2017-11-08T01:52:09.863Z,988.35
2017-11-08T01:53:09.859Z,988.32
2017-11-08T01:54:09.851Z,988.37
2017-11-08T01:55:10.242Z,988.34
2017-11-08T01:56:09.841Z,988.32
2017-11-08T01:57:09.835Z,988.3
2017-11-08T01:58:09.832Z,988.33
2017-11-08T01:59:09.825Z,988.32
2017-11-08T02:00:10.306Z,988.31
2017-11-08T02:01:09.822Z,988.33
2017-11-08T02:02:09.817Z,988.3
2017-11-08T02:03:09.812Z,988.33
2017-11-08T02:04:09.811Z,988.3
2017-11-08T02:05:10.254Z,988.33
2017-11-08T02:06:09.794Z,988.28
2017-11-08T02:07:09.786Z,988.33
2017-11-08T02:08:09.781Z,988.29
2017-11-08T02:09:09.777Z,988.33
2017-11-08T02:10:10.220Z,988.31
2017-11-08T02:11:09.779Z,988.32
2017-11-08T02:12:09.763Z,988.32
2017-11-08T02:13:09.757Z,988.29
2017-11-08T02:14:09.759Z,988.31
2017-11-08T02:15:10.106Z,988.31
2017-11-08T02:16:09.741Z,988.34
2017-11-08T02:17:09.737Z,988.35
2017-11-08T02:18:09.732Z,988.36
2017-11-08T02:19:09.728Z,988.34
2017-11-08T02:20:10.172Z,988.32
2017-11-08T02:21:09.720Z,988.33
2017-11-08T02:22:09.713Z,988.33
2017-11-08T02:23:09.707Z,988.33
2017-11-08T02:24:09.701Z,988.35
2017-11-08T02:25:10.085Z,988.37
2017-11-08T02:26:09.693Z,988.34
2017-11-08T02:27:09.688Z,988.33
2017-11-08T02:28:09.682Z,988.36
2017-11-08T02:29:09.678Z,988.34
2017-11-08T02:30:10.139Z,988.36
2017-11-08T02:31:09.672Z,988.35
2017-11-08T02:32:09.662Z,988.32
2017-11-08T02:33:09.658Z,988.33
2017-11-08T02:34:09.651Z,988.33
2017-11-08T02:35:10.043Z,988.34
2017-11-08T02:36:09.642Z,988.3
2017-11-08T02:37:09.638Z,988.26
2017-11-08T02:38:09.631Z,988.31
2017-11-08T02:39:09.626Z,988.31
2017-11-08T02:40:10.060Z,988.31
2017-11-08T02:41:09.620Z,988.33
2017-11-08T02:42:09.625Z,988.31
2017-11-08T02:43:09.610Z,988.33
2017-11-08T02:44:09.601Z,988.33
2017-11-08T02:45:09.947Z,988.27
2017-11-08T02:46:09.591Z,988.34
2017-11-08T02:47:09.587Z,988.31
2017-11-08T02:48:09.582Z,988.33
2017-11-08T02:49:09.576Z,988.33
2017-11-08T02:50:10.064Z,988.3
2017-11-08T02:51:09.567Z,988.34
2017-11-08T02:52:09.564Z,988.32
2017-11-08T02:53:09.564Z,988.33
2017-11-08T02:54:09.562Z,988.32
2017-11-08T02:55:09.873Z,988.33
2017-11-08T02:56:09.548Z,988.35
2017-11-08T02:57:09.537Z,988.36
2017-11-08T02:58:09.539Z,988.34
2017-11-08T02:59:09.535Z,988.37
2017-11-08T03:00:09.917Z,988.37
2017-11-08T03:01:09.519Z,988.35
2017-11-08T03:02:10.615Z,988.36
2017-11-08T03:03:09.505Z,988.38
2017-11-08T03:04:09.505Z,988.34
2017-11-08T03:05:09.882Z,988.37
2017-11-08T03:06:09.493Z,988.34
2017-11-08T03:07:09.486Z,988.35
2017-11-08T03:08:09.547Z,988.33
2017-11-08T03:09:09.477Z,988.38
2017-11-08T03:10:09.857Z,988.39
2017-11-08T03:11:09.466Z,988.36
2017-11-08T03:12:09.461Z,988.38
2017-11-08T03:13:09.456Z,988.33
2017-11-08T03:14:09.451Z,988.39
2017-11-08T03:15:09.893Z,988.36
2017-11-08T03:16:09.441Z,988.39
2017-11-08T03:17:09.437Z,988.37
2017-11-08T03:18:09.430Z,988.39
2017-11-08T03:19:09.426Z,988.41
2017-11-08T03:20:09.868Z,988.39
2017-11-08T03:21:09.415Z,988.42
2017-11-08T03:22:09.411Z,988.42
2017-11-08T03:23:09.407Z,988.38
2017-11-08T03:24:09.401Z,988.43
2017-11-08T03:25:09.812Z,988.43
2017-11-08T03:26:09.394Z,988.42
2017-11-08T03:27:09.384Z,988.45
2017-11-08T03:28:09.382Z,988.46
2017-11-08T03:29:09.375Z,988.49
2017-11-08T03:30:09.669Z,988.5
2017-11-08T03:31:09.373Z,988.48
2017-11-08T03:32:09.358Z,988.51
2017-11-08T03:33:09.359Z,988.51
2017-11-08T03:34:09.349Z,988.51
2017-11-08T03:35:09.672Z,988.54
2017-11-08T03:36:09.340Z,988.51
2017-11-08T03:37:09.342Z,988.57
2017-11-08T03:38:09.334Z,988.53
2017-11-08T03:39:09.323Z,988.54
2017-11-08T03:40:09.696Z,988.49
2017-11-08T03:41:09.315Z,988.5
2017-11-08T03:42:09.306Z,988.53
2017-11-08T03:43:09.304Z,988.49
2017-11-08T03:44:09.294Z,988.48
2017-11-08T03:45:09.732Z,988.52
2017-11-08T03:46:09.286Z,988.48
2017-11-08T03:47:09.288Z,988.47
2017-11-08T03:48:09.274Z,988.47
2017-11-08T03:49:09.274Z,988.46
2017-11-08T03:50:09.613Z,988.44
2017-11-08T03:51:09.258Z,988.42
2017-11-08T03:52:09.253Z,988.39
2017-11-08T03:53:09.251Z,988.38
2017-11-08T03:54:09.240Z,988.41
2017-11-08T03:55:09.236Z,988.39
2017-11-08T03:56:09.231Z,988.42
2017-11-08T03:57:09.226Z,988.39
2017-11-08T03:58:09.220Z,988.37
2017-11-08T03:59:09.214Z,988.4
2017-11-08T04:00:09.539Z,988.4
2017-11-08T04:01:09.203Z,988.41
2017-11-08T04:02:09.198Z,988.39
2017-11-08T04:03:09.193Z,988.39
2017-11-08T04:04:09.187Z,988.4
2017-11-08T04:05:09.585Z,988.36
2017-11-08T04:06:09.176Z,988.39
2017-11-08T04:07:09.173Z,988.35
2017-11-08T04:08:09.166Z,988.4
2017-11-08T04:09:09.160Z,988.35
2017-11-08T04:10:09.535Z,988.4
2017-11-08T04:11:09.152Z,988.38
2017-11-08T04:12:09.144Z,988.39
2017-11-08T04:13:09.138Z,988.4
2017-11-08T04:14:09.133Z,988.38
2017-11-08T04:15:09.546Z,988.42
2017-11-08T04:16:09.122Z,988.41
2017-11-08T04:17:09.117Z,988.37
2017-11-08T04:18:09.113Z,988.31
2017-11-08T04:19:09.108Z,988.37
2017-11-08T04:20:09.459Z,988.36
2017-11-08T04:21:09.095Z,988.37
2017-11-08T04:22:09.091Z,988.33
2017-11-08T04:23:09.086Z,988.35
2017-11-08T04:24:09.079Z,988.36
2017-11-08T04:25:09.468Z,988.35
2017-11-08T04:26:09.070Z,988.36
2017-11-08T04:27:09.069Z,988.33
2017-11-08T04:28:09.062Z,988.33
2017-11-08T04:29:09.058Z,988.37
2017-11-08T04:30:09.451Z,988.33
2017-11-08T04:31:09.043Z,988.34
2017-11-08T04:32:09.040Z,988.36
2017-11-08T04:33:09.033Z,988.35
2017-11-08T04:34:09.028Z,988.35
2017-11-08T04:35:09.354Z,988.35
2017-11-08T04:36:09.017Z,988.33
2017-11-08T04:37:09.016Z,988.33
2017-11-08T04:38:09.006Z,988.28
2017-11-08T04:39:09.002Z,988.31
2017-11-08T04:40:09.307Z,988.32
2017-11-08T04:41:08.992Z,988.36
2017-11-08T04:42:08.987Z,988.28
2017-11-08T04:43:08.984Z,988.32
2017-11-08T04:44:08.976Z,988.36
2017-11-08T04:45:09.362Z,988.34
2017-11-08T04:46:08.963Z,988.36
2017-11-08T04:47:08.957Z,988.35
2017-11-08T04:48:08.953Z,988.36
2017-11-08T04:49:08.947Z,988.36
2017-11-08T04:50:09.242Z,988.4
2017-11-08T04:51:08.936Z,988.41
2017-11-08T04:52:08.933Z,988.42
2017-11-08T04:53:08.926Z,988.43
2017-11-08T04:54:08.921Z,988.42
2017-11-08T04:55:09.297Z,988.39
2017-11-08T04:56:08.912Z,988.43
2017-11-08T04:57:08.906Z,988.41
2017-11-08T04:58:08.901Z,988.42
2017-11-08T04:59:08.895Z,988.46
2017-11-08T05:00:09.230Z,988.41
2017-11-08T05:01:08.887Z,988.41
2017-11-08T05:02:08.878Z,988.43
2017-11-08T05:03:08.872Z,988.46
2017-11-08T05:04:08.866Z,988.44
2017-11-08T05:05:09.153Z,988.46
2017-11-08T05:06:08.856Z,988.45
2017-11-08T05:07:08.851Z,988.47
2017-11-08T05:08:08.845Z,988.51
2017-11-08T05:09:08.840Z,988.48
2017-11-08T05:10:09.052Z,988.47
2017-11-08T05:11:08.830Z,988.48
2017-11-08T05:12:08.825Z,988.47
2017-11-08T05:13:08.824Z,988.47
2017-11-08T05:14:08.820Z,988.45
2017-11-08T05:15:09.070Z,988.45
2017-11-08T05:16:08.814Z,988.46
2017-11-08T05:17:08.805Z,988.48
2017-11-08T05:18:08.798Z,988.45
2017-11-08T05:19:08.788Z,988.48
2017-11-08T05:20:09.149Z,988.48
2017-11-08T05:21:08.780Z,988.46
2017-11-08T05:22:08.778Z,988.47
2017-11-08T05:23:08.780Z,988.49
2017-11-08T05:24:08.767Z,988.59
2017-11-08T05:25:09.110Z,988.57
2017-11-08T05:26:08.755Z,988.55
2017-11-08T05:27:08.749Z,988.6
2017-11-08T05:28:08.746Z,988.59
2017-11-08T05:29:08.737Z,988.63
2017-11-08T05:30:09.089Z,988.65
2017-11-08T05:31:08.728Z,988.69
2017-11-08T05:32:08.731Z,988.71
2017-11-08T05:33:08.716Z,988.69
2017-11-08T05:34:08.712Z,988.71
2017-11-08T05:35:08.984Z,988.71
2017-11-08T05:36:08.705Z,988.77
2017-11-08T05:37:08.703Z,988.74
2017-11-08T05:38:08.702Z,988.76
2017-11-08T05:39:08.687Z,988.75
2017-11-08T05:40:09.036Z,988.76
2017-11-08T05:41:08.677Z,988.76
2017-11-08T05:42:08.679Z,988.81
2017-11-08T05:43:08.668Z,988.77
2017-11-08T05:44:08.661Z,988.82
2017-11-08T05:45:08.955Z,988.84
2017-11-08T05:46:08.651Z,988.86
2017-11-08T05:47:08.651Z,988.88
2017-11-08T05:48:08.652Z,988.9
2017-11-08T05:49:08.644Z,988.9
2017-11-08T05:50:08.893Z,988.93
2017-11-08T05:51:08.635Z,988.93
2017-11-08T05:52:08.622Z,988.9
2017-11-08T05:53:08.662Z,988.93
2017-11-08T05:54:08.609Z,988.94
2017-11-08T05:55:08.813Z,988.94
2017-11-08T05:56:08.615Z,988.99
2017-11-08T05:57:08.604Z,988.97
2017-11-08T05:58:08.588Z,988.97
2017-11-08T05:59:08.583Z,988.96
2017-11-08T06:00:08.762Z,989.01
2017-11-08T06:01:08.575Z,988.99
2017-11-08T06:02:08.568Z,989.03
2017-11-08T06:03:08.569Z,989.03
2017-11-08T06:04:08.558Z,989.02
2017-11-08T06:05:08.903Z,989.04
2017-11-08T06:06:08.555Z,989.06
2017-11-08T06:07:08.555Z,989.08
2017-11-08T06:08:08.536Z,989.07
2017-11-08T06:09:08.533Z,989.08
2017-11-08T06:10:08.846Z,989.11
2017-11-08T06:11:08.520Z,989.09
2017-11-08T06:12:08.517Z,989.11
2017-11-08T06:13:08.514Z,989.1
2017-11-08T06:14:08.505Z,989.17
2017-11-08T06:15:08.725Z,989.15
2017-11-08T06:16:08.494Z,989.15
2017-11-08T06:17:08.490Z,989.15
2017-11-08T06:18:08.486Z,989.16
2017-11-08T06:19:08.481Z,989.18
2017-11-08T06:20:08.590Z,989.17
2017-11-08T06:21:08.469Z,989.15
2017-11-08T06:22:08.464Z,989.21
2017-11-08T06:23:08.459Z,989.21
2017-11-08T06:24:08.460Z,989.21
2017-11-08T06:25:08.616Z,989.19
2017-11-08T06:26:08.445Z,989.24
2017-11-08T06:27:08.440Z,989.27
2017-11-08T06:28:08.433Z,989.26
2017-11-08T06:29:08.430Z,989.27
2017-11-08T06:30:08.728Z,989.28
2017-11-08T06:31:08.419Z,989.3
2017-11-08T06:32:08.418Z,989.27
2017-11-08T06:33:08.408Z,989.31
2017-11-08T06:34:08.406Z,989.3
2017-11-08T06:35:08.630Z,989.29
2017-11-08T06:36:08.392Z,989.33
2017-11-08T06:37:08.387Z,989.32
2017-11-08T06:38:08.383Z,989.32
2017-11-08T06:39:08.378Z,989.31
2017-11-08T06:40:08.544Z,989.29
2017-11-08T06:41:08.367Z,989.31
2017-11-08T06:42:08.361Z,989.35
2017-11-08T06:43:08.356Z,989.38
2017-11-08T06:44:08.354Z,989.41
2017-11-08T06:45:08.616Z,989.43
2017-11-08T06:46:08.340Z,989.41
2017-11-08T06:47:08.335Z,989.43
2017-11-08T06:48:08.335Z,989.42
2017-11-08T06:49:09.131Z,989.42
2017-11-08T06:50:08.515Z,989.4
2017-11-08T06:51:08.314Z,989.41
2017-11-08T06:52:08.314Z,989.42
2017-11-08T06:53:08.305Z,989.45
2017-11-08T06:54:08.299Z,989.44
2017-11-08T06:55:08.527Z,989.44
2017-11-08T06:56:08.289Z,989.44
2017-11-08T06:57:08.285Z,989.48
2017-11-08T06:58:08.278Z,989.48
2017-11-08T06:59:08.273Z,989.49
2017-11-08T07:00:08.454Z,989.52
2017-11-08T07:01:08.263Z,989.51
2017-11-08T07:02:08.257Z,989.55
2017-11-08T07:03:08.255Z,989.54
2017-11-08T07:04:08.246Z,989.53
2017-11-08T07:05:08.373Z,989.56
2017-11-08T07:06:08.238Z,989.57
2017-11-08T07:07:08.233Z,989.53
2017-11-08T07:08:08.225Z,989.58
2017-11-08T07:09:08.221Z,989.56
2017-11-08T07:10:08.378Z,989.57
2017-11-08T07:11:08.220Z,989.56
2017-11-08T07:12:08.206Z,989.58
2017-11-08T07:13:08.200Z,989.56
2017-11-08T07:14:08.203Z,989.61
2017-11-08T07:15:08.423Z,989.56
2017-11-08T07:16:08.185Z,989.65
2017-11-08T07:17:08.180Z,989.6
2017-11-08T07:18:08.176Z,989.61
2017-11-08T07:19:08.179Z,989.62
2017-11-08T07:20:08.357Z,989.64
2017-11-08T07:21:08.160Z,989.6
2017-11-08T07:22:08.156Z,989.62
2017-11-08T07:23:08.149Z,989.62
2017-11-08T07:24:08.145Z,989.65
2017-11-08T07:25:08.142Z,989.68
2017-11-08T07:26:08.142Z,989.7
2017-11-08T07:27:08.139Z,989.71
2017-11-08T07:28:08.125Z,989.71
2017-11-08T07:29:08.120Z,989.7
2017-11-08T07:30:08.316Z,989.75
2017-11-08T07:31:08.111Z,989.73
2017-11-08T07:32:08.105Z,989.74
2017-11-08T07:33:08.102Z,989.73
2017-11-08T07:34:08.094Z,989.74
2017-11-08T07:35:08.188Z,989.7
2017-11-08T07:36:08.084Z,989.73
2017-11-08T07:37:08.079Z,989.72
2017-11-08T07:38:08.076Z,989.76
2017-11-08T07:39:08.073Z,989.73
2017-11-08T07:40:08.290Z,989.78
2017-11-08T07:41:08.061Z,989.81
2017-11-08T07:42:08.059Z,989.8
2017-11-08T07:43:08.052Z,989.78
2017-11-08T07:44:08.049Z,989.82
2017-11-08T07:45:08.254Z,989.82
2017-11-08T07:46:08.039Z,989.82
2017-11-08T07:47:08.030Z,989.83
2017-11-08T07:48:08.027Z,989.84
2017-11-08T07:49:08.035Z,989.87
2017-11-08T07:50:08.148Z,989.82
2017-11-08T07:51:08.011Z,989.89
2017-11-08T07:52:08.004Z,989.86
2017-11-08T07:53:08.005Z,989.87
2017-11-08T07:54:07.996Z,989.89
2017-11-08T07:55:08.098Z,989.91
2017-11-08T07:56:07.990Z,989.88
2017-11-08T07:57:07.979Z,989.9
2017-11-08T07:58:07.975Z,989.95
2017-11-08T07:59:07.974Z,989.91
2017-11-08T08:00:07.965Z,989.88
2017-11-08T08:01:07.960Z,989.92
2017-11-08T08:02:07.956Z,989.91
2017-11-08T08:03:07.950Z,989.91
2017-11-08T08:04:07.945Z,989.91
2017-11-08T08:05:08.131Z,989.91
2017-11-08T08:06:07.936Z,989.97
2017-11-08T08:07:07.931Z,989.95
2017-11-08T08:08:07.937Z,989.95
2017-11-08T08:09:07.923Z,989.94
2017-11-08T08:10:08.105Z,989.96
2017-11-08T08:11:07.909Z,989.99
2017-11-08T08:12:07.905Z,990
2017-11-08T08:13:07.903Z,990.02
2017-11-08T08:14:07.899Z,990.03
2017-11-08T08:15:07.966Z,990.03
2017-11-08T08:16:07.896Z,990
2017-11-08T08:17:07.891Z,990.04
2017-11-08T08:18:07.875Z,990.04
2017-11-08T08:19:07.875Z,990.01
2017-11-08T08:20:07.945Z,990.02
2017-11-08T08:21:07.863Z,990.05
2017-11-08T08:22:07.858Z,990.03
2017-11-08T08:23:07.853Z,990.09
2017-11-08T08:24:07.848Z,990.1
2017-11-08T08:25:07.866Z,990.09
2017-11-08T08:26:07.842Z,990.05
2017-11-08T08:27:07.834Z,990.09
2017-11-08T08:28:07.830Z,990.13
2017-11-08T08:29:07.825Z,990.13
2017-11-08T08:30:09.127Z,990.16
2017-11-08T08:31:07.816Z,990.17
2017-11-08T08:32:07.811Z,990.17
2017-11-08T08:33:07.806Z,990.15
2017-11-08T08:34:07.803Z,990.17
2017-11-08T08:35:07.798Z,990.16
2017-11-08T08:36:07.792Z,990.16
2017-11-08T08:37:07.788Z,990.17
2017-11-08T08:38:07.788Z,990.17
2017-11-08T08:39:07.776Z,990.14
2017-11-08T08:40:07.771Z,990.11
2017-11-08T08:41:07.767Z,990.12
2017-11-08T08:42:07.766Z,990.16
2017-11-08T08:43:07.757Z,990.15
2017-11-08T08:44:07.752Z,990.19
2017-11-08T08:45:07.839Z,990.2
2017-11-08T08:46:07.742Z,990.17
2017-11-08T08:47:07.738Z,990.23
2017-11-08T08:48:07.733Z,990.21
2017-11-08T08:49:07.728Z,990.22
2017-11-08T08:50:07.722Z,990.27
2017-11-08T08:51:07.718Z,990.26
2017-11-08T08:52:07.713Z,990.25
2017-11-08T08:53:07.709Z,990.27
2017-11-08T08:54:07.705Z,990.25
2017-11-08T08:55:07.748Z,990.24
2017-11-08T08:56:07.702Z,990.25
2017-11-08T08:57:07.689Z,990.3
2017-11-08T08:58:07.682Z,990.29
2017-11-08T08:59:07.678Z,990.32
2017-11-08T09:00:07.676Z,990.34
2017-11-08T09:01:07.669Z,990.34
2017-11-08T09:02:07.664Z,990.39
2017-11-08T09:03:07.660Z,990.37
2017-11-08T09:04:07.659Z,990.42
2017-11-08T09:05:07.650Z,990.42
2017-11-08T09:06:07.645Z,990.38
2017-11-08T09:07:07.640Z,990.45
2017-11-08T09:08:07.640Z,990.39
2017-11-08T09:09:07.632Z,990.43
2017-11-08T09:10:07.634Z,990.44
2017-11-08T09:11:07.623Z,990.48
2017-11-08T09:12:07.616Z,990.49
2017-11-08T09:13:07.612Z,990.5
2017-11-08T09:14:07.608Z,990.55
2017-11-08T09:15:07.675Z,990.54
2017-11-08T09:16:07.599Z,990.56
2017-11-08T09:17:07.595Z,990.55
2017-11-08T09:18:07.591Z,990.59
2017-11-08T09:19:07.586Z,990.62
2017-11-08T09:20:07.647Z,990.58
2017-11-08T09:21:08.379Z,990.6
2017-11-08T09:22:07.576Z,990.63
2017-11-08T09:23:07.571Z,990.6
2017-11-08T09:24:07.563Z,990.58
2017-11-08T09:25:07.558Z,990.61
2017-11-08T09:26:07.556Z,990.62
2017-11-08T09:27:07.550Z,990.62
2017-11-08T09:28:07.544Z,990.64
2017-11-08T09:29:07.541Z,990.67
2017-11-08T09:30:07.602Z,990.65
2017-11-08T09:31:07.533Z,990.66
2017-11-08T09:32:07.529Z,990.68
2017-11-08T09:33:07.527Z,990.63
2017-11-08T09:34:07.517Z,990.65
2017-11-08T09:35:07.569Z,990.66
2017-11-08T09:36:07.511Z,990.66
2017-11-08T09:37:07.508Z,990.69
2017-11-08T09:38:07.501Z,990.65
2017-11-08T09:39:07.501Z,990.69
2017-11-08T09:40:07.499Z,990.63
2017-11-08T09:41:07.498Z,990.63
2017-11-08T09:42:07.488Z,990.63
2017-11-08T09:43:07.478Z,990.63
2017-11-08T09:44:07.476Z,990.63
2017-11-08T09:45:07.484Z,990.65
2017-11-08T09:46:07.465Z,990.63
2017-11-08T09:47:07.460Z,990.58
2017-11-08T09:48:07.457Z,990.59
2017-11-08T09:49:07.451Z,990.61
2017-11-08T09:50:07.448Z,990.6
2017-11-08T09:51:07.454Z,990.6
2017-11-08T09:52:07.444Z,990.6
2017-11-08T09:53:07.434Z,990.61
2017-11-08T09:54:07.433Z,990.6
2017-11-08T09:55:07.427Z,990.59
2017-11-08T09:56:07.422Z,990.61
2017-11-08T09:57:07.418Z,990.61
2017-11-08T09:58:07.414Z,990.64
2017-11-08T09:59:07.409Z,990.64
2017-11-08T10:00:07.407Z,990.65
2017-11-08T10:01:07.402Z,990.63
2017-11-08T10:02:07.399Z,990.61
2017-11-08T10:03:07.397Z,990.56
2017-11-08T10:04:07.394Z,990.65
2017-11-08T10:05:07.388Z,990.63
2017-11-08T10:06:07.388Z,990.65
2017-11-08T10:07:07.399Z,990.6
2017-11-08T10:08:07.403Z,990.66
2017-11-08T10:09:07.385Z,990.61
2017-11-08T10:10:07.369Z,990.61
2017-11-08T10:11:07.391Z,990.64
2017-11-08T10:12:07.394Z,990.64
2017-11-08T10:13:07.360Z,990.63
2017-11-08T10:14:07.379Z,990.64
2017-11-08T10:15:07.349Z,990.61
2017-11-08T10:16:07.345Z,990.6
2017-11-08T10:17:07.341Z,990.63
2017-11-08T10:18:07.335Z,990.64
2017-11-08T10:19:07.342Z,990.62
2017-11-08T10:20:07.335Z,990.62
2017-11-08T10:21:07.325Z,990.68
2017-11-08T10:22:07.327Z,990.63
2017-11-08T10:23:07.316Z,990.67
2017-11-08T10:24:07.312Z,990.71
2017-11-08T10:25:07.309Z,990.67
2017-11-08T10:26:07.312Z,990.7
2017-11-08T10:27:07.299Z,990.71
2017-11-08T10:28:07.296Z,990.71
2017-11-08T10:29:07.290Z,990.76
2017-11-08T10:30:07.287Z,990.78
2017-11-08T10:31:07.284Z,990.74
2017-11-08T10:32:07.280Z,990.74
2017-11-08T10:33:07.277Z,990.77
2017-11-08T10:34:07.278Z,990.76
2017-11-08T10:35:07.272Z,990.73
2017-11-08T10:36:07.270Z,990.76
2017-11-08T10:37:07.271Z,990.74
2017-11-08T10:38:07.255Z,990.74
2017-11-08T10:39:07.252Z,990.77
2017-11-08T10:40:07.252Z,990.73
2017-11-08T10:41:07.245Z,990.76
2017-11-08T10:42:07.207Z,990.77
2017-11-08T10:43:07.204Z,990.75
2017-11-08T10:44:07.196Z,990.77
2017-11-08T10:45:07.195Z,990.79
2017-11-08T10:46:07.196Z,990.78
2017-11-08T10:47:07.184Z,990.8
2017-11-08T10:48:07.181Z,990.78
2017-11-08T10:49:07.181Z,990.81
2017-11-08T10:50:07.182Z,990.81
2017-11-08T10:51:07.167Z,990.81
2017-11-08T10:52:07.165Z,990.82
2017-11-08T10:53:07.161Z,990.83
2017-11-08T10:54:07.156Z,990.81
2017-11-08T10:55:07.155Z,990.82
2017-11-08T10:56:07.149Z,990.83
2017-11-08T10:57:07.149Z,990.84
2017-11-08T10:58:07.140Z,990.86
2017-11-08T10:59:07.135Z,990.87
2017-11-08T11:00:07.133Z,990.87
2017-11-08T11:01:07.128Z,990.95
2017-11-08T11:02:07.123Z,990.89
2017-11-08T11:03:07.123Z,990.92
2017-11-08T11:04:07.120Z,990.92
2017-11-08T11:05:07.113Z,990.9
2017-11-08T11:06:07.107Z,990.93
2017-11-08T11:07:07.104Z,990.93
2017-11-08T11:08:07.102Z,990.91
2017-11-08T11:09:07.095Z,990.9
2017-11-08T11:10:07.091Z,990.88
2017-11-08T11:11:07.087Z,990.86
2017-11-08T11:12:07.084Z,990.91
2017-11-08T11:13:07.080Z,990.87
2017-11-08T11:14:07.073Z,990.86
2017-11-08T11:15:07.070Z,990.92
2017-11-08T11:16:07.074Z,990.85
2017-11-08T11:17:07.060Z,990.91
2017-11-08T11:18:07.058Z,990.88
2017-11-08T11:19:07.053Z,990.87
2017-11-08T11:20:07.046Z,990.87
2017-11-08T11:21:07.043Z,990.86
2017-11-08T11:22:07.846Z,990.85
2017-11-08T11:23:07.033Z,990.86
2017-11-08T11:24:07.030Z,990.91
2017-11-08T11:25:07.024Z,990.86
2017-11-08T11:26:07.022Z,990.89
2017-11-08T11:27:07.017Z,990.88
2017-11-08T11:28:07.013Z,990.86
2017-11-08T11:29:07.009Z,990.88
2017-11-08T11:30:07.003Z,990.85
2017-11-08T11:31:06.998Z,990.86
2017-11-08T11:32:07.000Z,990.85
2017-11-08T11:33:06.994Z,990.86
2017-11-08T11:34:06.985Z,990.86
2017-11-08T11:35:06.978Z,990.86
2017-11-08T11:36:06.979Z,990.85
2017-11-08T11:37:06.971Z,990.85
2017-11-08T11:38:06.973Z,990.89
2017-11-08T11:39:06.963Z,990.9
2017-11-08T11:40:06.960Z,990.89
2017-11-08T11:41:06.954Z,990.92
2017-11-08T11:42:06.950Z,990.96
2017-11-08T11:43:06.944Z,990.9
2017-11-08T11:44:06.945Z,990.95
2017-11-08T11:45:06.937Z,990.88
2017-11-08T11:46:06.932Z,990.97
2017-11-08T11:47:06.932Z,990.88
2017-11-08T11:48:06.923Z,990.99
2017-11-08T11:49:06.949Z,990.97
2017-11-08T11:50:06.913Z,990.92
2017-11-08T11:51:06.908Z,990.92
2017-11-08T11:52:06.904Z,990.94
2017-11-08T11:53:06.899Z,990.93
2017-11-08T11:54:06.895Z,990.97
2017-11-08T11:55:06.897Z,990.98
2017-11-08T11:56:06.888Z,991.01
2017-11-08T11:57:06.880Z,990.96
2017-11-08T11:58:06.894Z,990.97
2017-11-08T11:59:06.871Z,990.94
2017-11-08T12:00:06.869Z,991.01
2017-11-08T12:01:06.869Z,991.03
2017-11-08T12:02:06.864Z,991.03
2017-11-08T12:03:06.860Z,991.03
2017-11-08T12:04:06.846Z,991.03
2017-11-08T12:05:06.843Z,991.03
2017-11-08T12:06:06.839Z,991.02
2017-11-08T12:07:06.831Z,991.06
2017-11-08T12:08:06.825Z,991.07
2017-11-08T12:09:06.830Z,991.08
2017-11-08T12:10:06.817Z,991.09
2017-11-08T12:11:06.814Z,991.09
2017-11-08T12:12:06.809Z,991.07
2017-11-08T12:13:06.804Z,991.1
2017-11-08T12:14:06.827Z,991.09
2017-11-08T12:15:06.852Z,991.12
2017-11-08T12:16:06.843Z,991.12
2017-11-08T12:17:06.784Z,991.08
2017-11-08T12:18:06.782Z,991.12
2017-11-08T12:19:06.774Z,991.12
2017-11-08T12:20:06.771Z,991.12
2017-11-08T12:21:06.767Z,991.14
2017-11-08T12:22:06.761Z,991.15
2017-11-08T12:23:06.755Z,991.17
2017-11-08T12:24:06.750Z,991.13
2017-11-08T12:25:06.746Z,991.15
2017-11-08T12:26:06.743Z,991.13
2017-11-08T12:27:06.737Z,991.13
2017-11-08T12:28:06.732Z,991.14
2017-11-08T12:29:06.728Z,991.16
2017-11-08T12:30:06.865Z,991.14